sensor_id;sensor_type;location;lat;lon;timestamp;temperature;humidity
3310;DHT22;1667;53.238;10.394;2023-10-19T00:04:29;9.70;99.90
3310;DHT22;1667;53.238;10.394;2023-10-19T00:09:31;9.70;99.90
3310;DHT22;1667;53.238;10.394;2023-10-19T00:14:35;9.80;99.90
3310;DHT22;1667;53.238;10.394;2023-10-19T00:19:35;9.70;99.90
3310;DHT22;1667;53.238;10.394;2023-10-19T00:24:37;9.70;99.90
3310;DHT22;1667;53.238;10.394;2023-10-19T00:29:38;9.70;99.90
3310;DHT22;1667;53.238;10.394;2023-10-19T00:34:41;9.70;99.90
3310;DHT22;1667;53.238;10.394;2023-10-19T00:39:44;9.70;99.90
3310;DHT22;1667;53.238;10.394;2023-10-19T00:44:51;9.70;99.90
3310;DHT22;1667;53.238;10.394;2023-10-19T00:49:58;9.80;99.90
3310;DHT22;1667;53.238;10.394;2023-10-19T00:55:01;9.80;99.90
3310;DHT22;1667;53.238;10.394;2023-10-19T01:00:02;9.80;99.90
3310;DHT22;1667;53.238;10.394;2023-10-19T01:05:12;9.80;99.90
3310;DHT22;1667;53.238;10.394;2023-10-19T01:10:10;9.80;99.90
3310;DHT22;1667;53.238;10.394;2023-10-19T01:15:12;9.80;99.90
3310;DHT22;1667;53.238;10.394;2023-10-19T01:20:18;9.90;99.90
3310;DHT22;1667;53.238;10.394;2023-10-19T01:25:20;10.00;99.90
3310;DHT22;1667;53.238;10.394;2023-10-19T01:30:32;10.00;99.90
3310;DHT22;1667;53.238;10.394;2023-10-19T01:35:31;9.90;99.90
3310;DHT22;1667;53.238;10.394;2023-10-19T01:40:45;9.90;99.90
3310;DHT22;1667;53.238;10.394;2023-10-19T01:46:11;9.90;99.90
3310;DHT22;1667;53.238;10.394;2023-10-19T01:51:11;9.90;99.90
3310;DHT22;1667;53.238;10.394;2023-10-19T01:56:12;10.00;99.90
3310;DHT22;1667;53.238;10.394;2023-10-19T02:01:12;10.10;99.90
3310;DHT22;1667;53.238;10.394;2023-10-19T02:06:18;10.10;99.90
3310;DHT22;1667;53.238;10.394;2023-10-19T02:11:21;10.00;99.90
3310;DHT22;1667;53.238;10.394;2023-10-19T02:16:21;9.90;99.90
3310;DHT22;1667;53.238;10.394;2023-10-19T02:21:22;9.90;99.90
3310;DHT22;1667;53.238;10.394;2023-10-19T02:26:25;9.90;99.90
3310;DHT22;1667;53.238;10.394;2023-10-19T02:31:25;10.00;99.90
3310;DHT22;1667;53.238;10.394;2023-10-19T02:36:25;10.10;99.90
3310;DHT22;1667;53.238;10.394;2023-10-19T02:41:29;10.10;99.90
3310;DHT22;1667;53.238;10.394;2023-10-19T02:46:28;10.10;99.90
3310;DHT22;1667;53.238;10.394;2023-10-19T02:51:28;10.10;99.90
3310;DHT22;1667;53.238;10.394;2023-10-19T02:56:28;10.10;99.90
3310;DHT22;1667;53.238;10.394;2023-10-19T03:01:28;10.10;99.90
3310;DHT22;1667;53.238;10.394;2023-10-19T03:06:30;10.10;99.90
3310;DHT22;1667;53.238;10.394;2023-10-19T03:11:32;10.30;99.90
3310;DHT22;1667;53.238;10.394;2023-10-19T03:16:32;10.10;99.90
3310;DHT22;1667;53.238;10.394;2023-10-19T03:21:32;10.10;99.90
3310;DHT22;1667;53.238;10.394;2023-10-19T03:26:41;10.20;99.90
3310;DHT22;1667;53.238;10.394;2023-10-19T03:31:46;10.20;99.90
3310;DHT22;1667;53.238;10.394;2023-10-19T03:36:47;10.10;99.90
3310;DHT22;1667;53.238;10.394;2023-10-19T03:41:47;10.00;99.90
3310;DHT22;1667;53.238;10.394;2023-10-19T03:46:49;10.10;99.90
3310;DHT22;1667;53.238;10.394;2023-10-19T03:51:55;10.00;99.90
3310;DHT22;1667;53.238;10.394;2023-10-19T03:56:59;10.10;99.90
3310;DHT22;1667;53.238;10.394;2023-10-19T04:02:07;10.10;99.90
3310;DHT22;1667;53.238;10.394;2023-10-19T04:07:08;10.10;99.90
3310;DHT22;1667;53.238;10.394;2023-10-19T04:12:17;10.10;99.90
3310;DHT22;1667;53.238;10.394;2023-10-19T04:17:16;10.00;99.90
3310;DHT22;1667;53.238;10.394;2023-10-19T04:22:18;10.00;99.90
3310;DHT22;1667;53.238;10.394;2023-10-19T04:27:22;10.00;99.90
3310;DHT22;1667;53.238;10.394;2023-10-19T04:32:21;9.90;99.90
3310;DHT22;1667;53.238;10.394;2023-10-19T04:37:23;9.80;99.90
3310;DHT22;1667;53.238;10.394;2023-10-19T04:42:23;9.80;99.90
3310;DHT22;1667;53.238;10.394;2023-10-19T04:47:25;9.90;99.90
3310;DHT22;1667;53.238;10.394;2023-10-19T04:52:24;9.80;99.90
3310;DHT22;1667;53.238;10.394;2023-10-19T04:57:25;9.80;99.90
3310;DHT22;1667;53.238;10.394;2023-10-19T05:02:24;9.80;99.90
3310;DHT22;1667;53.238;10.394;2023-10-19T05:07:23;9.70;99.90
3310;DHT22;1667;53.238;10.394;2023-10-19T05:12:25;9.60;99.90
3310;DHT22;1667;53.238;10.394;2023-10-19T05:17:24;9.70;99.90
3310;DHT22;1667;53.238;10.394;2023-10-19T05:22:57;9.60;99.90
3310;DHT22;1667;53.238;10.394;2023-10-19T05:27:59;9.60;99.90
3310;DHT22;1667;53.238;10.394;2023-10-19T05:32:58;9.60;99.90
3310;DHT22;1667;53.238;10.394;2023-10-19T05:43:58;9.60;99.90
3310;DHT22;1667;53.238;10.394;2023-10-19T05:48:57;9.50;99.90
3310;DHT22;1667;53.238;10.394;2023-10-19T05:53:56;9.50;99.90
3310;DHT22;1667;53.238;10.394;2023-10-19T05:59:00;9.50;99.90
3310;DHT22;1667;53.238;10.394;2023-10-19T06:03:59;9.60;99.90
3310;DHT22;1667;53.238;10.394;2023-10-19T06:08:58;9.50;99.90
3310;DHT22;1667;53.238;10.394;2023-10-19T06:14:00;9.60;99.90
3310;DHT22;1667;53.238;10.394;2023-10-19T06:19:00;9.50;99.90
3310;DHT22;1667;53.238;10.394;2023-10-19T06:24:00;9.30;99.90
3310;DHT22;1667;53.238;10.394;2023-10-19T06:29:01;9.40;99.90
3310;DHT22;1667;53.238;10.394;2023-10-19T06:34:01;9.40;99.90
3310;DHT22;1667;53.238;10.394;2023-10-19T06:39:00;9.50;99.90
3310;DHT22;1667;53.238;10.394;2023-10-19T06:44:05;9.60;99.90
3310;DHT22;1667;53.238;10.394;2023-10-19T06:49:04;9.60;99.90
3310;DHT22;1667;53.238;10.394;2023-10-19T06:54:03;9.50;99.90
3310;DHT22;1667;53.238;10.394;2023-10-19T06:59:01;9.60;99.90
3310;DHT22;1667;53.238;10.394;2023-10-19T07:04:04;9.50;99.90
3310;DHT22;1667;53.238;10.394;2023-10-19T07:09:03;9.70;99.90
3310;DHT22;1667;53.238;10.394;2023-10-19T07:14:03;9.70;99.90
3310;DHT22;1667;53.238;10.394;2023-10-19T07:19:06;9.70;99.90
3310;DHT22;1667;53.238;10.394;2023-10-19T07:24:07;9.60;99.90
3310;DHT22;1667;53.238;10.394;2023-10-19T07:29:08;9.70;99.90
3310;DHT22;1667;53.238;10.394;2023-10-19T07:34:09;9.70;99.90
3310;DHT22;1667;53.238;10.394;2023-10-19T07:39:16;9.70;99.90
3310;DHT22;1667;53.238;10.394;2023-10-19T07:44:16;9.70;99.90
3310;DHT22;1667;53.238;10.394;2023-10-19T07:49:17;9.70;99.90
3310;DHT22;1667;53.238;10.394;2023-10-19T07:54:16;9.70;99.90
3310;DHT22;1667;53.238;10.394;2023-10-19T07:59:15;9.70;99.90
3310;DHT22;1667;53.238;10.394;2023-10-19T08:04:13;9.70;99.90
3310;DHT22;1667;53.238;10.394;2023-10-19T08:09:14;9.70;99.90
3310;DHT22;1667;53.238;10.394;2023-10-19T08:14:20;9.70;99.90
3310;DHT22;1667;53.238;10.394;2023-10-19T08:19:19;9.70;99.90
3310;DHT22;1667;53.238;10.394;2023-10-19T08:24:20;9.80;99.90
3310;DHT22;1667;53.238;10.394;2023-10-19T08:29:20;9.80;99.90
3310;DHT22;1667;53.238;10.394;2023-10-19T08:34:20;9.90;99.90
3310;DHT22;1667;53.238;10.394;2023-10-19T08:39:20;9.90;99.90
3310;DHT22;1667;53.238;10.394;2023-10-19T08:44:22;10.00;99.90
3310;DHT22;1667;53.238;10.394;2023-10-19T08:49:21;10.00;99.90
3310;DHT22;1667;53.238;10.394;2023-10-19T08:54:21;10.00;99.90
3310;DHT22;1667;53.238;10.394;2023-10-19T08:59:20;10.00;99.90
3310;DHT22;1667;53.238;10.394;2023-10-19T09:04:19;10.00;99.90
3310;DHT22;1667;53.238;10.394;2023-10-19T09:09:18;10.00;99.90
3310;DHT22;1667;53.238;10.394;2023-10-19T09:14:31;10.00;99.90
3310;DHT22;1667;53.238;10.394;2023-10-19T09:19:38;10.00;99.90
3310;DHT22;1667;53.238;10.394;2023-10-19T09:24:38;10.00;99.90
3310;DHT22;1667;53.238;10.394;2023-10-19T09:29:38;10.00;99.90
3310;DHT22;1667;53.238;10.394;2023-10-19T09:34:40;10.10;99.90
3310;DHT22;1667;53.238;10.394;2023-10-19T09:39:41;10.10;99.90
3310;DHT22;1667;53.238;10.394;2023-10-19T09:44:43;10.10;99.90
3310;DHT22;1667;53.238;10.394;2023-10-19T09:49:43;10.10;99.90
3310;DHT22;1667;53.238;10.394;2023-10-19T09:55:12;10.10;99.90
3310;DHT22;1667;53.238;10.394;2023-10-19T10:00:12;10.10;99.90
3310;DHT22;1667;53.238;10.394;2023-10-19T10:05:44;10.10;99.90
3310;DHT22;1667;53.238;10.394;2023-10-19T10:10:46;10.10;99.90
3310;DHT22;1667;53.238;10.394;2023-10-19T10:15:48;10.00;99.90
3310;DHT22;1667;53.238;10.394;2023-10-19T10:21:12;10.00;99.90
3310;DHT22;1667;53.238;10.394;2023-10-19T10:26:15;10.10;99.90
3310;DHT22;1667;53.238;10.394;2023-10-19T10:31:18;10.10;99.90
3310;DHT22;1667;53.238;10.394;2023-10-19T10:36:57;10.10;99.90
3310;DHT22;1667;53.238;10.394;2023-10-19T10:41:58;10.20;99.90
3310;DHT22;1667;53.238;10.394;2023-10-19T10:46:57;10.30;99.90
3310;DHT22;1667;53.238;10.394;2023-10-19T10:51:57;10.10;99.90
3310;DHT22;1667;53.238;10.394;2023-10-19T10:56:57;10.10;99.90
3310;DHT22;1667;53.238;10.394;2023-10-19T11:01:56;10.00;99.90
3310;DHT22;1667;53.238;10.394;2023-10-19T11:06:55;10.00;99.90
3310;DHT22;1667;53.238;10.394;2023-10-19T11:11:54;10.00;99.90
3310;DHT22;1667;53.238;10.394;2023-10-19T11:16:55;10.00;99.90
3310;DHT22;1667;53.238;10.394;2023-10-19T11:22:10;10.10;99.90
3310;DHT22;1667;53.238;10.394;2023-10-19T11:27:09;10.00;99.90
3310;DHT22;1667;53.238;10.394;2023-10-19T11:32:12;9.90;99.90
3310;DHT22;1667;53.238;10.394;2023-10-19T11:37:11;9.90;99.90
3310;DHT22;1667;53.238;10.394;2023-10-19T11:42:11;9.90;99.90
3310;DHT22;1667;53.238;10.394;2023-10-19T11:47:12;10.00;99.90
3310;DHT22;1667;53.238;10.394;2023-10-19T11:52:12;10.40;99.90
3310;DHT22;1667;53.238;10.394;2023-10-19T11:57:11;10.10;99.90
3310;DHT22;1667;53.238;10.394;2023-10-19T12:02:12;10.10;99.90
3310;DHT22;1667;53.238;10.394;2023-10-19T12:07:16;10.10;99.90
3310;DHT22;1667;53.238;10.394;2023-10-19T12:12:15;10.10;99.90
3310;DHT22;1667;53.238;10.394;2023-10-19T12:17:15;10.10;99.90
3310;DHT22;1667;53.238;10.394;2023-10-19T12:22:15;10.10;99.90
3310;DHT22;1667;53.238;10.394;2023-10-19T12:27:15;10.20;99.90
3310;DHT22;1667;53.238;10.394;2023-10-19T12:32:14;10.10;99.90
3310;DHT22;1667;53.238;10.394;2023-10-19T12:37:15;10.10;99.90
3310;DHT22;1667;53.238;10.394;2023-10-19T12:42:15;10.10;99.90
3310;DHT22;1667;53.238;10.394;2023-10-19T12:47:14;10.10;99.90
3310;DHT22;1667;53.238;10.394;2023-10-19T12:52:16;10.10;99.90
3310;DHT22;1667;53.238;10.394;2023-10-19T12:57:15;10.00;99.90
3310;DHT22;1667;53.238;10.394;2023-10-19T13:02:14;10.00;99.90
3310;DHT22;1667;53.238;10.394;2023-10-19T13:07:13;10.00;99.90
3310;DHT22;1667;53.238;10.394;2023-10-19T13:12:13;10.10;99.90
3310;DHT22;1667;53.238;10.394;2023-10-19T13:17:13;10.20;99.90
3310;DHT22;1667;53.238;10.394;2023-10-19T13:22:12;10.30;99.90
3310;DHT22;1667;53.238;10.394;2023-10-19T13:27:14;10.30;99.90
3310;DHT22;1667;53.238;10.394;2023-10-19T13:32:12;10.20;99.90
3310;DHT22;1667;53.238;10.394;2023-10-19T13:37:11;10.20;99.90
3310;DHT22;1667;53.238;10.394;2023-10-19T13:42:10;10.20;99.90
3310;DHT22;1667;53.238;10.394;2023-10-19T13:47:10;10.30;99.90
3310;DHT22;1667;53.238;10.394;2023-10-19T13:52:10;10.30;99.90
3310;DHT22;1667;53.238;10.394;2023-10-19T13:57:08;10.30;99.90
3310;DHT22;1667;53.238;10.394;2023-10-19T14:02:07;10.40;99.90
3310;DHT22;1667;53.238;10.394;2023-10-19T14:07:10;10.40;99.90
3310;DHT22;1667;53.238;10.394;2023-10-19T14:12:08;10.40;99.90
3310;DHT22;1667;53.238;10.394;2023-10-19T14:17:07;10.40;99.90
3310;DHT22;1667;53.238;10.394;2023-10-19T14:22:06;10.40;99.90
3310;DHT22;1667;53.238;10.394;2023-10-19T14:27:06;10.50;99.90
3310;DHT22;1667;53.238;10.394;2023-10-19T14:32:06;10.40;99.90
3310;DHT22;1667;53.238;10.394;2023-10-19T14:37:05;10.40;99.90
3310;DHT22;1667;53.238;10.394;2023-10-19T14:42:06;10.40;99.90
3310;DHT22;1667;53.238;10.394;2023-10-19T14:47:06;10.40;99.90
3310;DHT22;1667;53.238;10.394;2023-10-19T14:52:05;10.40;99.90
3310;DHT22;1667;53.238;10.394;2023-10-19T14:57:05;10.40;99.90
3310;DHT22;1667;53.238;10.394;2023-10-19T15:02:05;10.50;99.90
3310;DHT22;1667;53.238;10.394;2023-10-19T15:07:09;10.50;99.90
3310;DHT22;1667;53.238;10.394;2023-10-19T15:12:11;10.40;99.90
3310;DHT22;1667;53.238;10.394;2023-10-19T15:17:10;10.40;99.90
3310;DHT22;1667;53.238;10.394;2023-10-19T15:22:08;10.40;99.90
3310;DHT22;1667;53.238;10.394;2023-10-19T15:27:07;10.30;99.90
3310;DHT22;1667;53.238;10.394;2023-10-19T15:32:07;10.20;99.90
3310;DHT22;1667;53.238;10.394;2023-10-19T15:37:07;10.20;99.90
3310;DHT22;1667;53.238;10.394;2023-10-19T15:42:09;10.30;99.90
3310;DHT22;1667;53.238;10.394;2023-10-19T15:47:10;10.20;99.90
3310;DHT22;1667;53.238;10.394;2023-10-19T15:52:09;10.20;99.90
3310;DHT22;1667;53.238;10.394;2023-10-19T15:57:08;10.30;99.90
3310;DHT22;1667;53.238;10.394;2023-10-19T16:02:07;10.40;99.90
3310;DHT22;1667;53.238;10.394;2023-10-19T16:07:08;10.40;99.90
3310;DHT22;1667;53.238;10.394;2023-10-19T16:12:09;10.40;99.90
3310;DHT22;1667;53.238;10.394;2023-10-19T16:17:08;10.40;99.90
3310;DHT22;1667;53.238;10.394;2023-10-19T16:22:09;10.40;99.90
3310;DHT22;1667;53.238;10.394;2023-10-19T16:27:08;10.30;99.90
3310;DHT22;1667;53.238;10.394;2023-10-19T16:32:08;10.20;99.90
3310;DHT22;1667;53.238;10.394;2023-10-19T16:37:09;10.10;99.90
3310;DHT22;1667;53.238;10.394;2023-10-19T16:42:08;10.10;99.90
3310;DHT22;1667;53.238;10.394;2023-10-19T16:47:07;10.10;99.90
3310;DHT22;1667;53.238;10.394;2023-10-19T16:52:08;10.10;99.90
3310;DHT22;1667;53.238;10.394;2023-10-19T16:57:06;10.10;99.90
3310;DHT22;1667;53.238;10.394;2023-10-19T17:02:05;10.20;99.90
3310;DHT22;1667;53.238;10.394;2023-10-19T17:07:04;10.10;99.90
3310;DHT22;1667;53.238;10.394;2023-10-19T17:12:05;10.00;99.90
3310;DHT22;1667;53.238;10.394;2023-10-19T17:17:06;10.00;99.90
3310;DHT22;1667;53.238;10.394;2023-10-19T17:22:06;9.90;99.90
3310;DHT22;1667;53.238;10.394;2023-10-19T17:27:08;9.90;99.90
3310;DHT22;1667;53.238;10.394;2023-10-19T17:32:08;10.00;99.90
3310;DHT22;1667;53.238;10.394;2023-10-19T17:37:07;10.00;99.90
3310;DHT22;1667;53.238;10.394;2023-10-19T17:42:08;10.10;99.90
3310;DHT22;1667;53.238;10.394;2023-10-19T17:47:08;10.10;99.90
3310;DHT22;1667;53.238;10.394;2023-10-19T17:52:07;10.10;99.90
3310;DHT22;1667;53.238;10.394;2023-10-19T17:57:07;10.10;99.90
3310;DHT22;1667;53.238;10.394;2023-10-19T18:02:06;10.10;99.90
3310;DHT22;1667;53.238;10.394;2023-10-19T18:07:09;10.10;99.90
3310;DHT22;1667;53.238;10.394;2023-10-19T18:12:10;10.10;99.90
3310;DHT22;1667;53.238;10.394;2023-10-19T18:17:10;10.10;99.90
3310;DHT22;1667;53.238;10.394;2023-10-19T18:22:09;10.00;99.90
3310;DHT22;1667;53.238;10.394;2023-10-19T18:27:09;10.10;99.90
3310;DHT22;1667;53.238;10.394;2023-10-19T18:32:08;10.10;99.90
3310;DHT22;1667;53.238;10.394;2023-10-19T18:37:07;10.10;99.90
3310;DHT22;1667;53.238;10.394;2023-10-19T18:42:06;10.10;99.90
3310;DHT22;1667;53.238;10.394;2023-10-19T18:47:09;10.10;99.90
3310;DHT22;1667;53.238;10.394;2023-10-19T18:52:08;10.10;99.90
3310;DHT22;1667;53.238;10.394;2023-10-19T18:57:06;10.20;99.90
3310;DHT22;1667;53.238;10.394;2023-10-19T19:02:06;10.20;99.90
3310;DHT22;1667;53.238;10.394;2023-10-19T19:07:08;10.20;99.90
3310;DHT22;1667;53.238;10.394;2023-10-19T19:12:07;10.10;99.90
3310;DHT22;1667;53.238;10.394;2023-10-19T19:17:06;10.10;99.90
3310;DHT22;1667;53.238;10.394;2023-10-19T19:22:08;10.10;99.90
3310;DHT22;1667;53.238;10.394;2023-10-19T19:27:07;10.10;99.90
3310;DHT22;1667;53.238;10.394;2023-10-19T19:32:07;10.20;99.90
3310;DHT22;1667;53.238;10.394;2023-10-19T19:37:07;10.20;99.90
3310;DHT22;1667;53.238;10.394;2023-10-19T19:42:06;10.20;99.90
3310;DHT22;1667;53.238;10.394;2023-10-19T19:47:05;10.10;99.90
3310;DHT22;1667;53.238;10.394;2023-10-19T19:52:05;10.10;99.90
3310;DHT22;1667;53.238;10.394;2023-10-19T19:57:05;10.00;99.90
3310;DHT22;1667;53.238;10.394;2023-10-19T20:02:04;10.00;99.90
3310;DHT22;1667;53.238;10.394;2023-10-19T20:07:03;10.00;99.90
3310;DHT22;1667;53.238;10.394;2023-10-19T20:12:05;10.00;99.90
3310;DHT22;1667;53.238;10.394;2023-10-19T20:17:04;10.00;99.90
3310;DHT22;1667;53.238;10.394;2023-10-19T20:22:04;10.00;99.90
3310;DHT22;1667;53.238;10.394;2023-10-19T20:27:04;10.00;99.90
3310;DHT22;1667;53.238;10.394;2023-10-19T20:32:03;10.00;99.90
3310;DHT22;1667;53.238;10.394;2023-10-19T20:37:03;10.00;99.90
3310;DHT22;1667;53.238;10.394;2023-10-19T20:42:02;10.10;99.90
3310;DHT22;1667;53.238;10.394;2023-10-19T20:47:04;10.00;99.90
3310;DHT22;1667;53.238;10.394;2023-10-19T20:52:03;10.00;99.90
3310;DHT22;1667;53.238;10.394;2023-10-19T20:57:02;10.00;99.90
3310;DHT22;1667;53.238;10.394;2023-10-19T21:02:01;10.00;99.90
3310;DHT22;1667;53.238;10.394;2023-10-19T21:07:03;9.90;99.90
3310;DHT22;1667;53.238;10.394;2023-10-19T21:12:02;9.90;99.90
3310;DHT22;1667;53.238;10.394;2023-10-19T21:17:01;10.00;99.90
3310;DHT22;1667;53.238;10.394;2023-10-19T21:22:04;10.00;99.90
3310;DHT22;1667;53.238;10.394;2023-10-19T21:27:05;10.00;99.90
3310;DHT22;1667;53.238;10.394;2023-10-19T21:32:04;9.90;99.90
3310;DHT22;1667;53.238;10.394;2023-10-19T21:37:05;9.80;99.90
3310;DHT22;1667;53.238;10.394;2023-10-19T21:42:03;10.10;99.90
3310;DHT22;1667;53.238;10.394;2023-10-19T21:47:02;9.80;99.90
3310;DHT22;1667;53.238;10.394;2023-10-19T21:52:01;9.80;99.90
3310;DHT22;1667;53.238;10.394;2023-10-19T21:57:02;9.80;99.90
3310;DHT22;1667;53.238;10.394;2023-10-19T22:02:01;9.70;99.90
3310;DHT22;1667;53.238;10.394;2023-10-19T22:07:00;9.70;99.90
3310;DHT22;1667;53.238;10.394;2023-10-19T22:12:00;9.60;99.90
3310;DHT22;1667;53.238;10.394;2023-10-19T22:17:01;9.70;99.90
3310;DHT22;1667;53.238;10.394;2023-10-19T22:22:02;9.70;99.90
3310;DHT22;1667;53.238;10.394;2023-10-19T22:27:01;9.70;99.90
3310;DHT22;1667;53.238;10.394;2023-10-19T22:32:02;9.80;99.90
3310;DHT22;1667;53.238;10.394;2023-10-19T22:37:01;9.60;99.90
3310;DHT22;1667;53.238;10.394;2023-10-19T22:42:00;9.60;99.90
3310;DHT22;1667;53.238;10.394;2023-10-19T22:47:01;9.50;99.90
3310;DHT22;1667;53.238;10.394;2023-10-19T22:52:01;9.40;99.90
3310;DHT22;1667;53.238;10.394;2023-10-19T22:57:00;9.40;99.90
3310;DHT22;1667;53.238;10.394;2023-10-19T23:01:59;9.40;99.90
3310;DHT22;1667;53.238;10.394;2023-10-19T23:06:59;9.50;99.90
3310;DHT22;1667;53.238;10.394;2023-10-19T23:11:58;9.60;99.90
3310;DHT22;1667;53.238;10.394;2023-10-19T23:17:00;9.60;99.90
3310;DHT22;1667;53.238;10.394;2023-10-19T23:22:04;9.60;99.90
3310;DHT22;1667;53.238;10.394;2023-10-19T23:27:04;9.60;99.90
3310;DHT22;1667;53.238;10.394;2023-10-19T23:32:03;9.60;99.90
3310;DHT22;1667;53.238;10.394;2023-10-19T23:37:03;9.70;99.90
3310;DHT22;1667;53.238;10.394;2023-10-19T23:42:03;9.80;99.90
3310;DHT22;1667;53.238;10.394;2023-10-19T23:47:02;9.70;99.90
3310;DHT22;1667;53.238;10.394;2023-10-19T23:52:01;9.60;99.90
3310;DHT22;1667;53.238;10.394;2023-10-19T23:57:01;9.60;99.90
